createdAt,value
2024-03-12T00:01:00.458Z,100.00
2024-03-12T00:03:23.725Z,100.00
2024-03-12T00:05:33.649Z,100.00
2024-03-12T00:07:43.771Z,100.00
2024-03-12T00:09:53.695Z,100.00
2024-03-12T00:12:03.588Z,100.00
2024-03-12T00:14:13.537Z,100.00
2024-03-12T00:16:24.001Z,100.00
2024-03-12T00:18:35.060Z,100.00
2024-03-12T00:20:47.250Z,100.00
2024-03-12T00:22:55.468Z,100.00
2024-03-12T00:25:09.585Z,100.00
2024-03-12T00:27:20.917Z,100.00
2024-03-12T00:29:31.476Z,100.00
2024-03-12T00:31:41.492Z,100.00
2024-03-12T00:33:51.839Z,100.00
2024-03-12T00:36:02.137Z,100.00
2024-03-12T00:38:12.334Z,100.00
2024-03-12T00:40:23.849Z,100.00
2024-03-12T00:42:33.942Z,100.00
2024-03-12T00:44:43.783Z,100.00
2024-03-12T00:46:54.126Z,100.00
2024-03-12T00:49:04.147Z,100.00
2024-03-12T00:51:14.125Z,100.00
2024-03-12T00:53:25.057Z,100.00
2024-03-12T00:55:37.843Z,100.00
2024-03-12T00:57:49.911Z,100.00
2024-03-12T01:00:00.192Z,100.00
2024-03-12T01:02:12.219Z,100.00
2024-03-12T01:04:23.206Z,100.00
2024-03-12T01:06:33.678Z,100.00
2024-03-12T01:08:44.383Z,100.00
2024-03-12T01:10:54.741Z,100.00
2024-03-12T01:13:08.384Z,100.00
2024-03-12T01:15:19.852Z,100.00
2024-03-12T01:17:30.412Z,100.00
2024-03-12T01:19:42.958Z,100.00
2024-03-12T01:21:53.308Z,100.00
2024-03-12T01:24:03.549Z,100.00
2024-03-12T01:26:14.649Z,100.00
2024-03-12T01:28:24.599Z,100.00
2024-03-12T01:30:35.537Z,100.00
2024-03-12T01:32:46.235Z,100.00
2024-03-12T01:34:59.287Z,100.00
2024-03-12T01:37:09.581Z,100.00
2024-03-12T01:39:26.964Z,100.00
2024-03-12T01:41:43.468Z,100.00
2024-03-12T01:44:04.126Z,100.00
2024-03-12T01:46:16.044Z,100.00
2024-03-12T01:48:26.077Z,100.00
2024-03-12T01:50:38.182Z,100.00
2024-03-12T01:52:48.735Z,100.00
2024-03-12T01:54:59.218Z,100.00
2024-03-12T01:57:09.217Z,100.00
2024-03-12T01:59:19.181Z,100.00
2024-03-12T02:01:29.912Z,100.00
2024-03-12T02:03:39.954Z,100.00
2024-03-12T02:05:50.109Z,100.00
2024-03-12T02:08:00.187Z,100.00
2024-03-12T02:10:12.042Z,100.00
2024-03-12T02:12:23.716Z,100.00
2024-03-12T02:14:33.714Z,100.00
2024-03-12T02:16:43.605Z,100.00
2024-03-12T02:18:54.259Z,100.00
2024-03-12T02:21:05.311Z,100.00
2024-03-12T02:23:18.461Z,100.00
2024-03-12T02:25:28.892Z,100.00
2024-03-12T02:27:41.748Z,100.00
2024-03-12T02:29:51.845Z,100.00
2024-03-12T02:32:01.807Z,100.00
2024-03-12T02:34:11.890Z,100.00
2024-03-12T02:36:22.816Z,100.00
2024-03-12T02:38:32.768Z,100.00
2024-03-12T02:40:43.181Z,100.00
2024-03-12T02:42:53.199Z,100.00
2024-03-12T02:45:02.958Z,100.00
2024-03-12T02:47:13.007Z,100.00
2024-03-12T02:49:24.778Z,100.00
2024-03-12T02:51:35.350Z,100.00
2024-03-12T02:53:45.620Z,100.00
2024-03-12T02:55:55.859Z,100.00
2024-03-12T02:58:06.455Z,100.00
2024-03-12T03:00:17.838Z,100.00
2024-03-12T03:02:27.847Z,100.00
2024-03-12T03:04:41.593Z,100.00
2024-03-12T03:06:52.911Z,100.00
2024-03-12T03:09:03.338Z,100.00
2024-03-12T03:11:13.548Z,100.00
2024-03-12T03:13:23.448Z,100.00
2024-03-12T03:15:33.506Z,100.00
2024-03-12T03:17:44.942Z,100.00
2024-03-12T03:19:55.251Z,100.00
2024-03-12T03:22:05.259Z,100.00
2024-03-12T03:24:15.662Z,100.00
2024-03-12T03:26:26.122Z,100.00
2024-03-12T03:28:36.104Z,100.00
2024-03-12T03:30:46.124Z,100.00
2024-03-12T03:32:56.323Z,100.00
2024-03-12T03:35:06.509Z,100.00
2024-03-12T03:37:16.615Z,100.00
2024-03-12T03:39:27.142Z,100.00
2024-03-12T03:41:37.367Z,100.00
2024-03-12T03:43:47.545Z,100.00
2024-03-12T03:45:57.793Z,100.00
2024-03-12T03:48:08.752Z,100.00
2024-03-12T03:50:18.799Z,100.00
2024-03-12T03:52:30.728Z,100.00
2024-03-12T03:54:40.602Z,100.00
2024-03-12T03:56:51.610Z,100.00
2024-03-12T03:59:02.849Z,100.00
2024-03-12T04:01:15.432Z,100.00
2024-03-12T04:03:27.213Z,100.00
2024-03-12T04:05:37.441Z,100.00
2024-03-12T04:07:47.475Z,100.00
2024-03-12T04:09:57.499Z,100.00
2024-03-12T04:12:07.968Z,100.00
2024-03-12T04:14:19.657Z,100.00
2024-03-12T04:16:29.708Z,100.00
2024-03-12T04:18:39.843Z,100.00
2024-03-12T04:20:50.008Z,100.00
2024-03-12T04:23:00.069Z,100.00
2024-03-12T04:25:11.798Z,100.00
2024-03-12T04:27:22.717Z,100.00
2024-03-12T04:29:32.681Z,100.00
2024-03-12T04:31:42.728Z,100.00
2024-03-12T04:33:54.661Z,100.00
2024-03-12T04:36:08.769Z,100.00
2024-03-12T04:38:20.415Z,100.00
2024-03-12T04:40:30.657Z,100.00
2024-03-12T04:42:41.538Z,100.00
2024-03-12T04:44:52.358Z,100.00
2024-03-12T04:47:02.612Z,100.00
2024-03-12T04:49:12.883Z,100.00
2024-03-12T04:51:23.012Z,100.00
2024-03-12T04:53:32.850Z,100.00
2024-03-12T04:55:42.701Z,100.00
2024-03-12T04:57:53.432Z,100.00
2024-03-12T05:00:04.666Z,100.00
2024-03-12T05:02:14.696Z,100.00
2024-03-12T05:04:25.616Z,100.00
2024-03-12T05:06:35.685Z,100.00
2024-03-12T05:08:46.376Z,100.00
2024-03-12T05:10:57.288Z,100.00
2024-03-12T05:13:07.859Z,100.00
2024-03-12T05:15:19.382Z,100.00
2024-03-12T05:17:29.422Z,100.00
2024-03-12T05:19:39.415Z,100.00
2024-03-12T05:21:49.587Z,100.00
2024-03-12T05:24:00.318Z,100.00
2024-03-12T05:26:10.473Z,100.00
2024-03-12T05:28:21.491Z,100.00
2024-03-12T05:30:31.955Z,100.00
2024-03-12T05:32:45.303Z,100.00
2024-03-12T05:35:00.695Z,100.00
2024-03-12T05:37:20.079Z,100.00
2024-03-12T05:39:49.805Z,100.00
2024-03-12T05:42:13.649Z,100.00
2024-03-12T05:44:52.365Z,100.00
2024-03-12T05:47:19.686Z,100.00
2024-03-12T05:49:29.875Z,100.00
2024-03-12T05:51:40.338Z,100.00
2024-03-12T05:53:50.418Z,100.00
2024-03-12T05:56:00.250Z,100.00
2024-03-12T05:58:11.812Z,100.00
2024-03-12T06:00:23.086Z,100.00
2024-03-12T06:02:33.483Z,100.00
2024-03-12T06:04:43.356Z,100.00
2024-03-12T06:06:53.761Z,100.00
2024-03-12T06:09:04.280Z,100.00
2024-03-12T06:11:14.367Z,100.00
2024-03-12T06:13:24.906Z,100.00
2024-03-12T06:15:35.429Z,100.00
2024-03-12T06:17:45.535Z,100.00
2024-03-12T06:19:55.707Z,100.00
2024-03-12T06:22:05.896Z,100.00
2024-03-12T06:24:15.984Z,100.00
2024-03-12T06:26:26.267Z,100.00
2024-03-12T06:28:37.393Z,100.00
2024-03-12T06:30:48.002Z,100.00
2024-03-12T06:32:58.023Z,100.00
2024-03-12T06:35:09.609Z,100.00
2024-03-12T06:37:20.757Z,100.00
2024-03-12T06:39:33.406Z,100.00
2024-03-12T06:41:48.307Z,100.00
2024-03-12T06:43:58.323Z,100.00
2024-03-12T06:46:09.251Z,100.00
2024-03-12T06:48:21.044Z,100.00
2024-03-12T06:50:31.797Z,100.00
2024-03-12T06:52:54.156Z,100.00
2024-03-12T06:55:17.176Z,100.00
2024-03-12T06:57:27.841Z,100.00
2024-03-12T06:59:38.200Z,100.00
2024-03-12T07:01:52.973Z,100.00
2024-03-12T07:04:03.395Z,100.00
2024-03-12T07:06:13.691Z,100.00
2024-03-12T07:08:27.372Z,100.00
2024-03-12T07:10:38.741Z,100.00
2024-03-12T07:12:49.155Z,100.00
2024-03-12T07:14:59.057Z,100.00
2024-03-12T07:17:09.701Z,100.00
2024-03-12T07:19:21.325Z,100.00
2024-03-12T07:21:31.119Z,100.00
2024-03-12T07:23:41.191Z,100.00
2024-03-12T07:25:51.341Z,100.00
2024-03-12T07:28:08.339Z,100.00
2024-03-12T07:30:19.372Z,100.00
2024-03-12T07:32:30.263Z,100.00
2024-03-12T07:34:41.438Z,100.00
2024-03-12T07:36:51.694Z,100.00
2024-03-12T07:39:01.691Z,100.00
2024-03-12T07:41:12.275Z,100.00
2024-03-12T07:43:22.651Z,100.00
2024-03-12T07:45:32.829Z,100.00
2024-03-12T07:47:42.983Z,100.00
2024-03-12T07:49:53.867Z,100.00
2024-03-12T07:52:04.074Z,100.00
2024-03-12T07:54:13.541Z,100.00
2024-03-12T07:56:25.697Z,100.00
2024-03-12T07:58:36.925Z,100.00
2024-03-12T08:00:47.445Z,100.00
2024-03-12T08:02:58.810Z,100.00
2024-03-12T08:05:09.267Z,100.00
2024-03-12T08:07:20.921Z,100.00
2024-03-12T08:09:30.645Z,100.00
2024-03-12T08:11:40.430Z,100.00
2024-03-12T08:13:50.384Z,100.00
2024-03-12T08:16:00.424Z,100.00
2024-03-12T08:18:17.456Z,100.00
2024-03-12T08:20:31.569Z,100.00
2024-03-12T08:22:41.424Z,100.00
2024-03-12T08:24:52.006Z,100.00
2024-03-12T08:27:01.882Z,100.00
2024-03-12T08:29:11.741Z,100.00
2024-03-12T08:31:31.018Z,100.00
2024-03-12T08:33:46.104Z,100.00
2024-03-12T08:35:56.553Z,100.00
2024-03-12T08:38:06.884Z,100.00
2024-03-12T08:40:17.775Z,100.00
2024-03-12T08:42:28.403Z,100.00
2024-03-12T08:44:38.931Z,100.00
2024-03-12T08:46:49.320Z,100.00
2024-03-12T08:48:59.332Z,100.00
2024-03-12T08:51:10.229Z,100.00
2024-03-12T08:53:21.286Z,100.00
2024-03-12T08:55:34.847Z,100.00
2024-03-12T08:57:44.929Z,100.00
2024-03-12T08:59:54.849Z,100.00
2024-03-12T09:02:05.347Z,100.00
2024-03-12T09:04:15.895Z,100.00
2024-03-12T09:06:25.823Z,100.00
2024-03-12T09:08:39.649Z,100.00
2024-03-12T09:10:50.439Z,100.00
2024-03-12T09:13:00.762Z,100.00
2024-03-12T09:15:12.302Z,100.00
2024-03-12T09:17:22.291Z,100.00
2024-03-12T09:19:31.855Z,100.00
2024-03-12T09:21:41.904Z,100.00
2024-03-12T09:24:00.520Z,100.00
2024-03-12T09:26:12.251Z,100.00
2024-03-12T09:28:23.066Z,100.00
2024-03-12T09:30:33.725Z,100.00
2024-03-12T09:32:43.619Z,100.00
2024-03-12T09:34:54.596Z,100.00
2024-03-12T09:37:04.414Z,100.00
2024-03-12T09:39:14.066Z,100.00
2024-03-12T09:41:26.622Z,100.00
2024-03-12T09:43:38.200Z,100.00
2024-03-12T09:45:48.391Z,100.00
2024-03-12T09:47:58.550Z,100.00
2024-03-12T09:50:12.989Z,100.00
2024-03-12T09:52:25.730Z,100.00
2024-03-12T09:54:36.292Z,100.00
2024-03-12T09:56:46.810Z,100.00
2024-03-12T09:58:58.494Z,100.00
2024-03-12T10:01:08.718Z,100.00
2024-03-12T10:03:22.215Z,100.00
2024-03-12T10:05:33.477Z,100.00
2024-03-12T10:08:10.482Z,100.00
2024-03-12T10:10:20.467Z,100.00
2024-03-12T10:12:30.514Z,100.00
2024-03-12T10:14:40.456Z,100.00
2024-03-12T10:16:50.957Z,100.00
2024-03-12T10:19:13.228Z,100.00
2024-03-12T10:21:26.732Z,100.00
2024-03-12T10:23:38.995Z,100.00
2024-03-12T10:25:47.530Z,100.00
2024-03-12T10:28:07.453Z,100.00
2024-03-12T10:30:30.324Z,100.00
2024-03-12T10:32:40.169Z,100.00
2024-03-12T12:29:35.761Z,97.70
2024-03-12T12:31:47.500Z,97.63
2024-03-12T12:34:02.326Z,97.32
2024-03-12T12:36:16.396Z,96.59
2024-03-12T12:38:27.276Z,96.43
2024-03-12T12:40:38.254Z,96.17
2024-03-12T12:42:49.052Z,95.94
2024-03-12T12:45:01.477Z,95.92
2024-03-12T12:47:09.478Z,95.87
2024-03-12T12:49:20.169Z,95.70
2024-03-12T12:51:30.123Z,95.91
2024-03-12T12:53:40.312Z,95.85
2024-03-12T12:55:57.144Z,96.05
2024-03-12T12:58:08.563Z,96.23
2024-03-12T13:00:26.079Z,96.53
2024-03-12T13:02:36.495Z,96.51
2024-03-12T13:04:46.813Z,96.38
2024-03-12T13:06:58.611Z,96.55
2024-03-12T13:09:12.192Z,96.73
2024-03-12T13:11:23.699Z,96.76
2024-03-12T13:13:33.669Z,96.93
2024-03-12T13:15:45.363Z,96.92
2024-03-12T13:17:55.668Z,97.41
2024-03-12T13:20:06.950Z,97.54
2024-03-12T13:22:22.737Z,97.77
2024-03-12T13:24:33.232Z,98.25
2024-03-12T13:26:43.825Z,96.85
2024-03-12T13:28:56.142Z,96.13
2024-03-12T13:31:07.458Z,96.12
2024-03-12T13:33:17.981Z,96.40
2024-03-12T13:35:29.654Z,96.38
2024-03-12T13:37:40.874Z,96.59
2024-03-12T13:39:51.344Z,96.08
2024-03-12T13:42:01.439Z,94.96
2024-03-12T13:44:11.493Z,95.16
2024-03-12T13:46:21.590Z,95.40
2024-03-12T13:48:32.345Z,95.91
2024-03-12T13:50:45.111Z,96.29
2024-03-12T13:52:55.138Z,94.85
2024-03-12T13:55:06.440Z,92.64
2024-03-12T13:57:16.929Z,91.71
2024-03-12T13:59:27.102Z,91.40
2024-03-12T14:01:38.603Z,91.87
2024-03-12T14:03:53.218Z,91.79
2024-03-12T14:06:04.169Z,91.98
2024-03-12T14:08:14.828Z,92.43
2024-03-12T14:10:25.038Z,91.91
2024-03-12T14:12:36.095Z,92.42
2024-03-12T14:14:46.479Z,91.82
2024-03-12T14:16:57.122Z,90.16
2024-03-12T14:19:10.332Z,88.61
2024-03-12T14:21:20.748Z,87.87
2024-03-12T14:23:30.742Z,86.73
2024-03-12T14:25:40.930Z,85.84
2024-03-12T14:27:53.014Z,87.06
2024-03-12T14:30:03.105Z,87.80
2024-03-12T14:32:13.433Z,87.24
2024-03-12T14:34:24.187Z,88.12
2024-03-12T14:36:34.075Z,87.04
2024-03-12T14:38:44.193Z,86.19
2024-03-12T14:40:54.201Z,85.51
2024-03-12T14:43:05.273Z,86.89
2024-03-12T14:45:15.939Z,88.50
2024-03-12T14:47:26.373Z,86.97
2024-03-12T14:49:38.442Z,86.69
2024-03-12T14:51:49.650Z,86.84
2024-03-12T14:54:00.150Z,87.41
2024-03-12T14:56:11.513Z,87.96
2024-03-12T14:58:22.142Z,88.33
2024-03-12T15:00:32.272Z,89.17
2024-03-12T15:02:42.336Z,89.51
2024-03-12T15:04:53.896Z,90.28
2024-03-12T15:07:04.237Z,90.81
2024-03-12T15:09:15.651Z,91.17
2024-03-12T15:11:26.410Z,90.85
2024-03-12T15:13:37.920Z,90.40
2024-03-12T15:15:47.974Z,90.16
2024-03-12T15:17:58.201Z,89.70
2024-03-12T15:20:13.026Z,89.71
2024-03-12T15:22:23.511Z,89.81
2024-03-12T15:24:36.033Z,90.18
2024-03-12T15:26:50.492Z,90.76
2024-03-12T15:29:01.665Z,91.35
2024-03-12T15:31:11.606Z,92.03
2024-03-12T15:33:21.519Z,91.56
2024-03-12T15:35:32.729Z,91.45
2024-03-12T15:37:43.751Z,91.42
2024-03-12T15:39:53.664Z,91.46
2024-03-12T15:42:04.200Z,91.02
2024-03-12T15:44:14.181Z,91.38
2024-03-12T15:46:24.463Z,91.55
2024-03-12T15:48:35.832Z,91.10
2024-03-12T15:50:45.772Z,90.21
2024-03-12T15:52:56.531Z,89.69
2024-03-12T15:55:09.769Z,89.92
2024-03-12T15:57:20.795Z,90.12
2024-03-12T15:59:31.202Z,90.63
2024-03-12T16:01:42.428Z,91.13
2024-03-12T16:03:52.872Z,92.12
2024-03-12T16:06:03.684Z,92.45
2024-03-12T16:08:14.439Z,92.37
2024-03-12T16:10:25.012Z,92.21
2024-03-12T16:12:35.633Z,91.70
2024-03-12T16:14:45.658Z,91.47
2024-03-12T16:16:55.784Z,91.33
2024-03-12T16:19:05.802Z,91.93
2024-03-12T16:21:16.316Z,92.50
2024-03-12T16:23:26.186Z,92.74
2024-03-12T16:25:36.184Z,92.82
2024-03-12T16:27:47.255Z,92.80
2024-03-12T16:29:59.434Z,92.97
2024-03-12T16:32:14.833Z,93.38
2024-03-12T16:34:25.479Z,92.63
2024-03-12T16:36:35.912Z,91.66
2024-03-12T16:38:48.183Z,90.64
2024-03-12T16:40:58.043Z,90.49
2024-03-12T16:43:08.471Z,90.53
2024-03-12T16:45:18.446Z,87.16
2024-03-12T16:47:28.429Z,85.34
2024-03-12T16:49:38.951Z,84.09
2024-03-12T16:51:50.166Z,84.07
2024-03-12T16:54:01.383Z,83.98
2024-03-12T16:56:25.202Z,84.48
2024-03-12T16:58:37.841Z,84.72
2024-03-12T17:00:52.152Z,84.29
2024-03-12T17:03:03.075Z,85.09
2024-03-12T17:05:17.569Z,85.50
2024-03-12T17:07:29.162Z,85.52
2024-03-12T17:09:40.483Z,86.04
2024-03-12T17:11:51.689Z,86.55
2024-03-12T17:14:04.732Z,87.21
2024-03-12T17:16:16.689Z,87.37
2024-03-12T17:18:27.789Z,87.49
2024-03-12T17:20:38.937Z,87.63
2024-03-12T17:22:49.953Z,87.60
2024-03-12T17:25:01.262Z,87.84
2024-03-12T17:27:12.790Z,87.72
2024-03-12T17:29:25.000Z,87.19
2024-03-12T17:31:37.030Z,86.87
2024-03-12T17:33:49.461Z,86.97
2024-03-12T17:36:02.013Z,86.48
2024-03-12T17:38:12.660Z,86.11
2024-03-12T17:40:23.957Z,85.51
2024-03-12T17:42:35.162Z,85.77
2024-03-12T17:44:46.491Z,84.94
2024-03-12T17:46:59.363Z,84.00
2024-03-12T17:49:09.927Z,84.24
2024-03-12T17:51:20.713Z,83.84
2024-03-12T17:53:31.863Z,83.56
2024-03-12T17:55:44.457Z,83.21
2024-03-12T17:57:54.390Z,81.79
2024-03-12T18:00:10.747Z,81.77
2024-03-12T18:02:23.771Z,82.03
2024-03-12T18:04:35.372Z,82.87
2024-03-12T18:06:47.930Z,83.64
2024-03-12T18:09:01.659Z,83.91
2024-03-12T18:11:13.413Z,83.46
2024-03-12T18:13:25.130Z,83.17
2024-03-12T18:15:36.643Z,81.15
2024-03-12T18:17:49.037Z,81.94
2024-03-12T18:19:59.575Z,81.69
2024-03-12T18:22:09.736Z,81.81
2024-03-12T18:24:20.253Z,80.36
2024-03-12T18:26:30.977Z,80.97
2024-03-12T18:28:40.799Z,80.10
2024-03-12T18:30:51.100Z,80.31
2024-03-12T18:33:02.658Z,79.66
2024-03-12T18:35:13.905Z,78.60
2024-03-12T18:37:23.958Z,78.35
2024-03-12T18:39:34.707Z,76.70
2024-03-12T18:41:45.162Z,75.81
2024-03-12T18:43:55.288Z,72.40
2024-03-12T18:46:05.588Z,71.55
2024-03-12T18:48:17.983Z,71.58
2024-03-12T18:50:26.897Z,72.86
2024-03-12T18:52:39.249Z,73.71
2024-03-12T18:54:53.598Z,72.15
2024-03-12T18:57:05.357Z,72.38
2024-03-12T18:59:17.084Z,74.64
2024-03-12T19:01:30.589Z,75.65
2024-03-12T19:03:50.505Z,76.51
2024-03-12T19:06:02.520Z,77.53
2024-03-12T19:08:19.242Z,78.53
2024-03-12T19:10:32.475Z,79.63
2024-03-12T19:12:43.555Z,79.58
2024-03-12T19:14:55.000Z,79.57
2024-03-12T19:17:11.491Z,80.68
2024-03-12T19:19:25.238Z,79.65
2024-03-12T19:21:36.645Z,78.74
2024-03-12T19:23:47.042Z,78.73
2024-03-12T19:25:58.508Z,78.59
2024-03-12T19:28:09.384Z,77.78
2024-03-12T19:30:21.982Z,76.83
2024-03-12T19:32:30.489Z,76.13
2024-03-12T19:34:41.690Z,76.78
2024-03-12T19:36:52.480Z,75.42
2024-03-12T19:39:03.965Z,75.35
2024-03-12T19:41:16.014Z,75.37
2024-03-12T19:43:29.030Z,74.75
2024-03-12T19:45:42.663Z,74.57
2024-03-12T19:47:54.167Z,74.76
2024-03-12T19:50:07.575Z,75.33
2024-03-12T19:52:19.152Z,74.26
2024-03-12T19:54:29.618Z,74.74
2024-03-12T19:56:40.015Z,76.23
2024-03-12T19:58:50.122Z,77.48
2024-03-12T20:01:01.785Z,78.61
2024-03-12T20:03:13.436Z,79.35
2024-03-12T20:05:24.286Z,79.46
2024-03-12T20:07:34.484Z,80.09
2024-03-12T20:09:44.488Z,80.59
2024-03-12T20:11:55.387Z,80.91
2024-03-12T20:14:06.651Z,81.00
2024-03-12T20:16:17.358Z,81.14
2024-03-12T20:18:31.621Z,80.83
2024-03-12T20:20:42.947Z,80.93
2024-03-12T20:22:54.038Z,81.26
2024-03-12T20:25:03.754Z,80.73
2024-03-12T20:27:13.756Z,80.05
2024-03-12T20:29:24.533Z,79.04
2024-03-12T20:31:35.004Z,80.32
2024-03-12T20:33:44.948Z,80.47
2024-03-12T20:35:55.613Z,80.17
2024-03-12T20:38:05.844Z,78.24
2024-03-12T20:40:16.769Z,77.78
2024-03-12T20:42:30.708Z,77.51
2024-03-12T20:44:42.732Z,77.66
2024-03-12T20:46:52.603Z,74.96
2024-03-12T20:49:02.802Z,74.29
2024-03-12T20:51:13.334Z,75.47
2024-03-12T20:53:23.242Z,76.01
2024-03-12T20:55:33.742Z,75.07
2024-03-12T20:57:48.441Z,75.58
2024-03-12T20:59:59.946Z,75.62
2024-03-12T21:02:13.920Z,74.89
2024-03-12T21:04:24.190Z,74.29
2024-03-12T21:06:34.453Z,74.21
2024-03-12T21:08:47.375Z,75.09
2024-03-12T21:10:57.653Z,74.50
2024-03-12T21:13:08.366Z,72.64
2024-03-12T21:15:20.220Z,73.32
2024-03-12T21:17:31.478Z,72.96
2024-03-12T21:19:41.735Z,71.52
2024-03-12T21:21:54.936Z,71.71
2024-03-12T21:24:05.241Z,71.47
2024-03-12T21:26:21.734Z,71.44
2024-03-12T21:28:31.841Z,70.97
2024-03-12T21:30:42.577Z,71.81
2024-03-12T21:32:53.130Z,71.09
2024-03-12T21:35:06.569Z,70.75
2024-03-12T21:37:16.692Z,70.22
2024-03-12T21:39:27.995Z,70.04
2024-03-12T21:41:40.066Z,69.37
2024-03-12T21:43:50.417Z,69.09
2024-03-12T21:46:00.845Z,69.60
2024-03-12T21:48:11.851Z,69.22
2024-03-12T21:50:24.238Z,69.80
2024-03-12T21:52:34.115Z,69.30
2024-03-12T21:54:44.717Z,67.88
2024-03-12T21:56:55.009Z,67.97
2024-03-12T21:59:06.310Z,68.13
2024-03-12T22:01:21.677Z,66.26
2024-03-12T22:03:32.497Z,66.42
2024-03-12T22:05:43.190Z,66.07
2024-03-12T22:07:53.315Z,64.41
2024-03-12T22:10:03.155Z,65.45
2024-03-12T22:12:13.849Z,66.35
2024-03-12T22:14:25.835Z,66.42
2024-03-12T22:16:37.399Z,66.93
2024-03-12T22:18:48.355Z,66.02
2024-03-12T22:20:58.497Z,65.03
2024-03-12T22:23:11.770Z,65.80
2024-03-12T22:25:22.555Z,64.39
2024-03-12T22:27:37.388Z,65.95
2024-03-12T22:29:51.342Z,66.96
2024-03-12T22:32:03.498Z,65.26
2024-03-12T22:34:13.715Z,65.85
2024-03-12T22:36:24.935Z,66.41
2024-03-12T22:38:38.113Z,66.94
2024-03-12T22:40:49.192Z,66.31
2024-03-12T22:42:59.753Z,66.30
2024-03-12T22:45:13.101Z,65.71
2024-03-12T22:47:24.670Z,66.20
2024-03-12T22:49:35.462Z,65.27
2024-03-12T22:51:46.327Z,66.39
2024-03-12T22:53:57.385Z,67.42
2024-03-12T22:56:16.220Z,69.17
2024-03-12T22:58:27.758Z,69.30
2024-03-12T23:00:47.110Z,69.02
2024-03-12T23:02:57.693Z,69.81
2024-03-12T23:05:09.771Z,68.93
2024-03-12T23:07:21.466Z,68.47
2024-03-12T23:09:32.718Z,68.46
2024-03-12T23:11:43.163Z,68.77
2024-03-12T23:13:54.766Z,68.70
2024-03-12T23:16:05.156Z,67.93
2024-03-12T23:18:15.010Z,66.25
2024-03-12T23:20:25.993Z,66.01
2024-03-12T23:22:38.993Z,65.48
2024-03-12T23:24:49.783Z,65.96
2024-03-12T23:26:59.867Z,66.66
2024-03-12T23:29:11.523Z,66.72
2024-03-12T23:31:21.445Z,65.20
2024-03-12T23:33:31.880Z,65.49
2024-03-12T23:35:43.736Z,65.37
2024-03-12T23:37:53.592Z,65.86
2024-03-12T23:40:03.941Z,65.18
2024-03-12T23:42:14.255Z,64.86
2024-03-12T23:44:25.402Z,65.01
2024-03-12T23:46:38.833Z,64.96
2024-03-12T23:48:48.887Z,65.02
2024-03-12T23:50:59.480Z,64.22
2024-03-12T23:53:09.372Z,63.88
2024-03-12T23:55:19.686Z,62.97
2024-03-12T23:57:29.703Z,64.16
2024-03-12T23:59:39.499Z,64.66
